41.3°F
Current conditions from King Hill
Updated every 5 minutes
 
  Friday April 25, 2014

Station Historical Data
Daily Summary for July 19, 2011 Units:  Both    English   Metric
« Previous Day
Next Day »
Daily Weekly Monthly Yearly Custom
  High: Low: Average:
Temperature: 81.4 °F /  27.4 °C 58.3 °F /  14.6 °C 69.6 °F /  20.9 °C
Dew Point: 65.9 °F /  18.8 °C 54.9 °F /  12.7 °C 61.5 °F /  16.4 °C
Humidity: 96% 45% 78%
Wind Speed: 5.0mph /  8km/h - 1.9mph /  3.1km/h
Wind Gust: 10.0mph /  16.1km/h - -
Wind- - WSW
Pressure: 29.85 in /  1010.7 hPa 29.76 in /  1007.7 hPa -
Precipitation: 0.01 in /  0.3 mm    
Historical Graphs
 
 
Tabular Data for July 19, 2011
Time Temperature Dew Point Pressure Wind Wind Speed Wind Gust Humidity Daily Rainfall
00:00 66.3 °F /  19.1 °C 64.5 °F /  18.1 °C 29.78in /  1008.4hPa Calm   1.0mph /  1.6km/h 94% 0.01in /  0.3mm
00:05 66.2 °F /  19 °C 64.4 °F /  18 °C 29.78in /  1008.4hPa Calm   1.0mph /  1.6km/h 94% 0.00in /  0mm
00:10 65.9 °F /  18.8 °C 64.1 °F /  17.8 °C 29.78in /  1008.4hPa Calm     94% 0.00in /  0mm
00:15 65.8 °F /  18.8 °C 64.0 °F /  17.8 °C 29.78in /  1008.4hPa Calm     94% 0.00in /  0mm
00:20 65.6 °F /  18.7 °C 63.8 °F /  17.7 °C 29.78in /  1008.4hPa Calm     94% 0.00in /  0mm
00:25 65.6 °F /  18.7 °C 63.8 °F /  17.7 °C 29.78in /  1008.4hPa Calm     94% 0.00in /  0mm
00:30 65.4 °F /  18.6 °C 63.6 °F /  17.6 °C 29.78in /  1008.4hPa Calm   1.0mph /  1.6km/h 94% 0.00in /  0mm
00:35 65.2 °F /  18.4 °C 63.4 °F /  17.4 °C 29.78in /  1008.4hPa Calm   1.0mph /  1.6km/h 94% 0.00in /  0mm
00:40 65.3 °F /  18.5 °C 63.5 °F /  17.5 °C 29.78in /  1008.4hPa Calm   2.0mph /  3.2km/h 94% 0.00in /  0mm
00:45 65.2 °F /  18.4 °C 63.4 °F /  17.4 °C 29.77in /  1008hPa Calm   2.0mph /  3.2km/h 94% 0.00in /  0mm
00:50 65.0 °F /  18.3 °C 63.2 °F /  17.3 °C 29.77in /  1008hPa Calm   2.0mph /  3.2km/h 94% 0.00in /  0mm
00:55 65.0 °F /  18.3 °C 63.2 °F /  17.3 °C 29.78in /  1008.4hPa Calm   2.0mph /  3.2km/h 94% 0.00in /  0mm
01:00 65.2 °F /  18.4 °C 63.7 °F /  17.6 °C 29.78in /  1008.4hPa WSW 2.0mph /  3.2km/h 6.0mph /  9.7km/h 95% 0.00in /  0mm
01:05 65.6 °F /  18.7 °C 64.4 °F /  18 °C 29.78in /  1008.4hPa Calm   6.0mph /  9.7km/h 96% 0.00in /  0mm
01:10 65.8 °F /  18.8 °C 64.3 °F /  17.9 °C 29.78in /  1008.4hPa Calm   3.0mph /  4.8km/h 95% 0.00in /  0mm
01:15 65.7 °F /  18.7 °C 64.2 °F /  17.9 °C 29.78in /  1008.4hPa Calm   2.0mph /  3.2km/h 95% 0.00in /  0mm
01:20 65.6 °F /  18.7 °C 64.1 °F /  17.8 °C 29.78in /  1008.4hPa Calm   1.0mph /  1.6km/h 95% 0.00in /  0mm
01:25 65.7 °F /  18.7 °C 64.5 °F /  18.1 °C 29.78in /  1008.4hPa West 1.0mph /  1.6km/h 4.0mph /  6.4km/h 96% 0.00in /  0mm
01:30 65.8 °F /  18.8 °C 64.6 °F /  18.1 °C 29.77in /  1008hPa West 1.0mph /  1.6km/h 4.0mph /  6.4km/h 96% 0.00in /  0mm
01:35 65.7 °F /  18.7 °C 64.5 °F /  18.1 °C 29.77in /  1008hPa WSW 1.0mph /  1.6km/h 4.0mph /  6.4km/h 96% 0.00in /  0mm
01:40 65.6 °F /  18.7 °C 64.1 °F /  17.8 °C 29.78in /  1008.4hPa Calm   4.0mph /  6.4km/h 95% 0.00in /  0mm
01:45 65.5 °F /  18.6 °C 64.0 °F /  17.8 °C 29.78in /  1008.4hPa Calm   1.0mph /  1.6km/h 95% 0.00in /  0mm
01:50 65.3 °F /  18.5 °C 63.8 °F /  17.7 °C 29.78in /  1008.4hPa Calm   1.0mph /  1.6km/h 95% 0.00in /  0mm
01:55 65.3 °F /  18.5 °C 63.8 °F /  17.7 °C 29.78in /  1008.4hPa Calm   1.0mph /  1.6km/h 95% 0.00in /  0mm
02:00 65.3 °F /  18.5 °C 63.8 °F /  17.7 °C 29.78in /  1008.4hPa Calm   1.0mph /  1.6km/h 95% 0.00in /  0mm
02:05 64.9 °F /  18.3 °C 63.4 °F /  17.4 °C 29.78in /  1008.4hPa Calm   4.0mph /  6.4km/h 95% 0.00in /  0mm
02:10 65.1 °F /  18.4 °C 63.6 °F /  17.6 °C 29.78in /  1008.4hPa Calm   5.0mph /  8km/h 95% 0.00in /  0mm
02:15 65.2 °F /  18.4 °C 64.0 °F /  17.8 °C 29.78in /  1008.4hPa Calm   5.0mph /  8km/h 96% 0.00in /  0mm
02:20 65.2 °F /  18.4 °C 64.0 °F /  17.8 °C 29.78in /  1008.4hPa Calm   3.0mph /  4.8km/h 96% 0.00in /  0mm
02:25 65.2 °F /  18.4 °C 64.0 °F /  17.8 °C 29.77in /  1008hPa Calm   3.0mph /  4.8km/h 96% 0.00in /  0mm
02:30 65.0 °F /  18.3 °C 63.5 °F /  17.5 °C 29.77in /  1008hPa Calm   2.0mph /  3.2km/h 95% 0.00in /  0mm
02:35 65.0 °F /  18.3 °C 63.8 °F /  17.7 °C 29.77in /  1008hPa West 1.0mph /  1.6km/h 3.0mph /  4.8km/h 96% 0.00in /  0mm
02:40 64.9 °F /  18.3 °C 63.4 °F /  17.4 °C 29.77in /  1008hPa West 1.0mph /  1.6km/h 6.0mph /  9.7km/h 95% 0.00in /  0mm
02:45 65.0 °F /  18.3 °C 63.5 °F /  17.5 °C 29.77in /  1008hPa Calm   6.0mph /  9.7km/h 95% 0.00in /  0mm
02:50 64.9 °F /  18.3 °C 63.4 °F /  17.4 °C 29.77in /  1008hPa Calm   5.0mph /  8km/h 95% 0.00in /  0mm
02:55 64.8 °F /  18.2 °C 63.3 °F /  17.4 °C 29.76in /  1007.7hPa Calm   5.0mph /  8km/h 95% 0.00in /  0mm
03:00 64.7 °F /  18.2 °C 63.2 °F /  17.3 °C 29.76in /  1007.7hPa Calm   4.0mph /  6.4km/h 95% 0.00in /  0mm
03:05 64.6 °F /  18.1 °C 63.1 °F /  17.3 °C 29.76in /  1007.7hPa Calm   4.0mph /  6.4km/h 95% 0.00in /  0mm
03:10 64.2 °F /  17.9 °C 62.7 °F /  17.1 °C 29.76in /  1007.7hPa Calm   1.0mph /  1.6km/h 95% 0.00in /  0mm
03:15 64.4 °F /  18 °C 62.9 °F /  17.2 °C 29.76in /  1007.7hPa Calm   3.0mph /  4.8km/h 95% 0.00in /  0mm
03:20 64.7 °F /  18.2 °C 63.2 °F /  17.3 °C 29.76in /  1007.7hPa Calm   3.0mph /  4.8km/h 95% 0.00in /  0mm
03:25 64.7 °F /  18.2 °C 63.2 °F /  17.3 °C 29.76in /  1007.7hPa Calm   4.0mph /  6.4km/h 95% 0.00in /  0mm
03:30 64.7 °F /  18.2 °C 63.2 °F /  17.3 °C 29.77in /  1008hPa Calm   4.0mph /  6.4km/h 95% 0.00in /  0mm
03:35 64.8 °F /  18.2 °C 63.3 °F /  17.4 °C 29.77in /  1008hPa Calm     95% 0.00in /  0mm
03:40 64.7 °F /  18.2 °C 63.2 °F /  17.3 °C 29.77in /  1008hPa Calm     95% 0.00in /  0mm
03:45 64.5 °F /  18.1 °C 63.0 °F /  17.2 °C 29.77in /  1008hPa Calm     95% 0.00in /  0mm
03:50 64.3 °F /  17.9 °C 62.8 °F /  17.1 °C 29.77in /  1008hPa WNW 1.0mph /  1.6km/h 3.0mph /  4.8km/h 95% 0.00in /  0mm
03:55 64.1 °F /  17.8 °C 62.6 °F /  17 °C 29.78in /  1008.4hPa Calm   3.0mph /  4.8km/h 95% 0.00in /  0mm
04:00 64.0 °F /  17.8 °C 62.5 °F /  16.9 °C 29.78in /  1008.4hPa Calm   2.0mph /  3.2km/h 95% 0.00in /  0mm
04:05 64.0 °F /  17.8 °C 62.5 °F /  16.9 °C 29.77in /  1008hPa Calm   2.0mph /  3.2km/h 95% 0.00in /  0mm
04:10 64.0 °F /  17.8 °C 62.5 °F /  16.9 °C 29.77in /  1008hPa Calm   1.0mph /  1.6km/h 95% 0.00in /  0mm
04:15 63.9 °F /  17.7 °C 62.4 °F /  16.9 °C 29.78in /  1008.4hPa Calm   1.0mph /  1.6km/h 95% 0.00in /  0mm
04:20 63.9 °F /  17.7 °C 62.4 °F /  16.9 °C 29.78in /  1008.4hPa Calm   1.0mph /  1.6km/h 95% 0.00in /  0mm
04:25 63.6 °F /  17.6 °C 62.1 °F /  16.7 °C 29.78in /  1008.4hPa Calm   1.0mph /  1.6km/h 95% 0.00in /  0mm
04:30 63.5 °F /  17.5 °C 62.0 °F /  16.7 °C 29.78in /  1008.4hPa WNW 1.0mph /  1.6km/h 2.0mph /  3.2km/h 95% 0.00in /  0mm
04:35 63.4 °F /  17.4 °C 61.9 °F /  16.6 °C 29.78in /  1008.4hPa Calm   4.0mph /  6.4km/h 95% 0.00in /  0mm
04:40 63.3 °F /  17.4 °C 61.8 °F /  16.6 °C 29.78in /  1008.4hPa Calm   4.0mph /  6.4km/h 95% 0.00in /  0mm
04:45 63.3 °F /  17.4 °C 61.8 °F /  16.6 °C 29.78in /  1008.4hPa Calm     95% 0.00in /  0mm
04:55 62.8 °F /  17.1 °C 61.3 °F /  16.3 °C 29.79in /  1008.7hPa Calm   3.0mph /  4.8km/h 95% 0.00in /  0mm
05:00 62.7 °F /  17.1 °C 61.2 °F /  16.2 °C 29.79in /  1008.7hPa Calm     95% 0.00in /  0mm
05:05 62.8 °F /  17.1 °C 61.3 °F /  16.3 °C 29.79in /  1008.7hPa Calm     95% 0.00in /  0mm
05:10 62.8 °F /  17.1 °C 61.3 °F /  16.3 °C 29.80in /  1009hPa Calm     95% 0.00in /  0mm
05:15 63.1 °F /  17.3 °C 61.9 °F /  16.6 °C 29.80in /  1009hPa Calm     96% 0.00in /  0mm
05:20 63.3 °F /  17.4 °C 61.8 °F /  16.6 °C 29.80in /  1009hPa Calm   1.0mph /  1.6km/h 95% 0.00in /  0mm
05:25 63.2 °F /  17.3 °C 61.7 °F /  16.5 °C 29.80in /  1009hPa Calm   1.0mph /  1.6km/h 95% 0.00in /  0mm
05:30 63.2 °F /  17.3 °C 61.7 °F /  16.5 °C 29.80in /  1009hPa Calm   1.0mph /  1.6km/h 95% 0.00in /  0mm
05:35 63.1 °F /  17.3 °C 61.6 °F /  16.4 °C 29.80in /  1009hPa Calm   1.0mph /  1.6km/h 95% 0.00in /  0mm
05:40 63.0 °F /  17.2 °C 61.5 °F /  16.4 °C 29.80in /  1009hPa Calm     95% 0.00in /  0mm
05:45 62.9 °F /  17.2 °C 61.4 °F /  16.3 °C 29.80in /  1009hPa Calm     95% 0.00in /  0mm
05:55 62.4 °F /  16.9 °C 60.9 °F /  16.1 °C 29.80in /  1009hPa Calm     95% 0.00in /  0mm
06:00 62.1 °F /  16.7 °C 60.7 °F /  15.9 °C 29.80in /  1009hPa Calm     95% 0.00in /  0mm
06:05 61.7 °F /  16.5 °C 60.3 °F /  15.7 °C 29.80in /  1009hPa Calm     95% 0.00in /  0mm
06:10 61.3 °F /  16.3 °C 59.9 °F /  15.5 °C 29.80in /  1009hPa Calm     95% 0.00in /  0mm
06:15 61.2 °F /  16.2 °C 59.8 °F /  15.4 °C 29.81in /  1009.4hPa Calm     95% 0.00in /  0mm
06:20 61.1 °F /  16.2 °C 59.7 °F /  15.4 °C 29.81in /  1009.4hPa Calm     95% 0.01in /  0.3mm
06:25 61.1 °F /  16.2 °C 59.7 °F /  15.4 °C 29.81in /  1009.4hPa Calm   1.0mph /  1.6km/h 95% 0.01in /  0.3mm
06:30 61.4 °F /  16.3 °C 60.0 °F /  15.6 °C 29.82in /  1009.7hPa Calm   1.0mph /  1.6km/h 95% 0.01in /  0.3mm
06:35 61.8 °F /  16.6 °C 60.6 °F /  15.9 °C 29.82in /  1009.7hPa Calm     96% 0.01in /  0.3mm
06:40 62.2 °F /  16.8 °C 61.0 °F /  16.1 °C 29.82in /  1009.7hPa Calm   1.0mph /  1.6km/h 96% 0.01in /  0.3mm
06:45 62.5 °F /  16.9 °C 61.3 °F /  16.3 °C 29.82in /  1009.7hPa Calm   1.0mph /  1.6km/h 96% 0.01in /  0.3mm
06:50 62.6 °F /  17 °C 61.4 °F /  16.3 °C 29.82in /  1009.7hPa Calm     96% 0.01in /  0.3mm
06:55 62.8 °F /  17.1 °C 61.6 °F /  16.4 °C 29.82in /  1009.7hPa Calm   4.0mph /  6.4km/h 96% 0.01in /  0.3mm
07:00 63.1 °F /  17.3 °C 61.9 °F /  16.6 °C 29.82in /  1009.7hPa WNW 2.0mph /  3.2km/h 5.0mph /  8km/h 96% 0.01in /  0.3mm
07:05 63.4 °F /  17.4 °C 62.2 °F /  16.8 °C 29.82in /  1009.7hPa Calm   5.0mph /  8km/h 96% 0.01in /  0.3mm
07:10 63.6 °F /  17.6 °C 62.4 °F /  16.9 °C 29.82in /  1009.7hPa Calm   3.0mph /  4.8km/h 96% 0.01in /  0.3mm
07:15 63.8 °F /  17.7 °C 62.6 °F /  17 °C 29.82in /  1009.7hPa Calm     96% 0.01in /  0.3mm
07:20 64.0 °F /  17.8 °C 62.8 °F /  17.1 °C 29.82in /  1009.7hPa Calm   3.0mph /  4.8km/h 96% 0.01in /  0.3mm
07:30 64.4 °F /  18 °C 63.2 °F /  17.3 °C 29.83in /  1010hPa Calm   1.0mph /  1.6km/h 96% 0.01in /  0.3mm
07:40 64.6 °F /  18.1 °C 63.4 °F /  17.4 °C 29.83in /  1010hPa Calm   4.0mph /  6.4km/h 96% 0.01in /  0.3mm
07:45 64.6 °F /  18.1 °C 63.4 °F /  17.4 °C 29.83in /  1010hPa Calm   1.0mph /  1.6km/h 96% 0.01in /  0.3mm
07:50 64.7 °F /  18.2 °C 63.2 °F /  17.3 °C 29.83in /  1010hPa Calm   1.0mph /  1.6km/h 95% 0.01in /  0.3mm
07:55 64.9 °F /  18.3 °C 63.4 °F /  17.4 °C 29.84in /  1010.4hPa Calm   2.0mph /  3.2km/h 95% 0.01in /  0.3mm
08:00 65.2 °F /  18.4 °C 63.7 °F /  17.6 °C 29.84in /  1010.4hPa North 1.0mph /  1.6km/h 3.0mph /  4.8km/h 95% 0.01in /  0.3mm
08:05 65.7 °F /  18.7 °C 64.2 °F /  17.9 °C 29.84in /  1010.4hPa NE 1.0mph /  1.6km/h 3.0mph /  4.8km/h 95% 0.01in /  0.3mm
08:10 66.4 °F /  19.1 °C 64.6 °F /  18.1 °C 29.84in /  1010.4hPa Calm   3.0mph /  4.8km/h 94% 0.01in /  0.3mm
08:15 67.1 °F /  19.5 °C 64.7 °F /  18.2 °C 29.84in /  1010.4hPa NE 1.0mph /  1.6km/h 5.0mph /  8km/h 92% 0.01in /  0.3mm
08:25 67.3 °F /  19.6 °C 63.6 °F /  17.6 °C 29.84in /  1010.4hPa Calm   5.0mph /  8km/h 88% 0.01in /  0.3mm
08:30 67.4 °F /  19.7 °C 63.4 °F /  17.4 °C 29.84in /  1010.4hPa Calm   5.0mph /  8km/h 87% 0.01in /  0.3mm
08:35 68.0 °F /  20 °C 64.0 °F /  17.8 °C 29.84in /  1010.4hPa Calm   4.0mph /  6.4km/h 87% 0.01in /  0.3mm
08:40 68.6 °F /  20.3 °C 62.9 °F /  17.2 °C 29.84in /  1010.4hPa NE 1.0mph /  1.6km/h 5.0mph /  8km/h 82% 0.01in /  0.3mm
08:45 69.2 °F /  20.7 °C 62.8 °F /  17.1 °C 29.84in /  1010.4hPa Calm   5.0mph /  8km/h 80% 0.01in /  0.3mm
08:50 69.8 °F /  21 °C 63.4 °F /  17.4 °C 29.84in /  1010.4hPa Calm   4.0mph /  6.4km/h 80% 0.01in /  0.3mm
08:55 70.3 °F /  21.3 °C 64.2 °F /  17.9 °C 29.84in /  1010.4hPa NNE 1.0mph /  1.6km/h 4.0mph /  6.4km/h 81% 0.01in /  0.3mm
09:00 70.6 °F /  21.4 °C 63.0 °F /  17.2 °C 29.84in /  1010.4hPa Calm   4.0mph /  6.4km/h 77% 0.01in /  0.3mm
09:05 70.7 °F /  21.5 °C 63.5 °F /  17.5 °C 29.84in /  1010.4hPa Calm   4.0mph /  6.4km/h 78% 0.01in /  0.3mm
09:10 71.2 °F /  21.8 °C 64.4 °F /  18 °C 29.84in /  1010.4hPa Calm   1.0mph /  1.6km/h 79% 0.01in /  0.3mm
09:15 71.8 °F /  22.1 °C 64.6 °F /  18.1 °C 29.83in /  1010hPa Calm   1.0mph /  1.6km/h 78% 0.01in /  0.3mm
09:20 72.4 °F /  22.4 °C 64.0 °F /  17.8 °C 29.84in /  1010.4hPa Calm   1.0mph /  1.6km/h 75% 0.01in /  0.3mm
09:25 72.8 °F /  22.7 °C 64.0 °F /  17.8 °C 29.84in /  1010.4hPa Calm   1.0mph /  1.6km/h 74% 0.01in /  0.3mm
09:30 72.9 °F /  22.7 °C 63.0 °F /  17.2 °C 29.84in /  1010.4hPa Calm   4.0mph /  6.4km/h 71% 0.01in /  0.3mm
09:35 73.2 °F /  22.9 °C 64.4 °F /  18 °C 29.84in /  1010.4hPa Calm   4.0mph /  6.4km/h 74% 0.01in /  0.3mm
09:40 73.5 °F /  23.1 °C 65.1 °F /  18.4 °C 29.84in /  1010.4hPa Calm   1.0mph /  1.6km/h 75% 0.01in /  0.3mm
09:45 73.2 °F /  22.9 °C 62.0 °F /  16.7 °C 29.84in /  1010.4hPa NNW 1.0mph /  1.6km/h 3.0mph /  4.8km/h 68% 0.01in /  0.3mm
09:50 73.3 °F /  22.9 °C 61.7 °F /  16.5 °C 29.84in /  1010.4hPa Calm   6.0mph /  9.7km/h 67% 0.01in /  0.3mm
09:55 73.7 °F /  23.2 °C 62.5 °F /  16.9 °C 29.84in /  1010.4hPa Calm   6.0mph /  9.7km/h 68% 0.01in /  0.3mm
10:00 73.8 °F /  23.2 °C 61.7 °F /  16.5 °C 29.84in /  1010.4hPa Calm   4.0mph /  6.4km/h 66% 0.01in /  0.3mm
10:05 74.0 °F /  23.3 °C 64.0 °F /  17.8 °C 29.84in /  1010.4hPa Calm   5.0mph /  8km/h 71% 0.01in /  0.3mm
10:10 74.4 °F /  23.6 °C 63.2 °F /  17.3 °C 29.84in /  1010.4hPa Calm   5.0mph /  8km/h 68% 0.01in /  0.3mm
10:15 74.7 °F /  23.7 °C 62.2 °F /  16.8 °C 29.84in /  1010.4hPa Calm   1.0mph /  1.6km/h 65% 0.01in /  0.3mm
10:20 75.1 °F /  23.9 °C 64.2 °F /  17.9 °C 29.84in /  1010.4hPa Calm   1.0mph /  1.6km/h 69% 0.01in /  0.3mm
10:25 75.4 °F /  24.1 °C 63.7 °F /  17.6 °C 29.84in /  1010.4hPa Calm   7.0mph /  11.3km/h 67% 0.01in /  0.3mm
10:30 75.3 °F /  24.1 °C 65.3 °F /  18.5 °C 29.84in /  1010.4hPa NW 1.0mph /  1.6km/h 7.0mph /  11.3km/h 71% 0.01in /  0.3mm
10:40 74.8 °F /  23.8 °C 65.2 °F /  18.4 °C 29.84in /  1010.4hPa Calm   10.0mph /  16.1km/h 72% 0.01in /  0.3mm
10:45 75.1 °F /  23.9 °C 63.4 °F /  17.4 °C 29.84in /  1010.4hPa WNW 2.0mph /  3.2km/h 8.0mph /  12.9km/h 67% 0.01in /  0.3mm
10:50 75.5 °F /  24.2 °C 64.6 °F /  18.1 °C 29.84in /  1010.4hPa NW 4.0mph /  6.4km/h 7.0mph /  11.3km/h 69% 0.01in /  0.3mm
10:55 75.5 °F /  24.2 °C 63.4 °F /  17.4 °C 29.84in /  1010.4hPa NW 1.0mph /  1.6km/h 8.0mph /  12.9km/h 66% 0.01in /  0.3mm
11:00 75.6 °F /  24.2 °C 64.7 °F /  18.2 °C 29.84in /  1010.4hPa NW 1.0mph /  1.6km/h 8.0mph /  12.9km/h 69% 0.01in /  0.3mm
11:05 75.7 °F /  24.3 °C 62.7 °F /  17.1 °C 29.85in /  1010.7hPa WNW 3.0mph /  4.8km/h 8.0mph /  12.9km/h 64% 0.01in /  0.3mm
11:10 75.6 °F /  24.2 °C 63.9 °F /  17.7 °C 29.84in /  1010.4hPa NW 2.0mph /  3.2km/h 6.0mph /  9.7km/h 67% 0.01in /  0.3mm
11:15 75.6 °F /  24.2 °C 65.9 °F /  18.8 °C 29.84in /  1010.4hPa Calm   6.0mph /  9.7km/h 72% 0.01in /  0.3mm
11:20 75.8 °F /  24.3 °C 63.6 °F /  17.6 °C 29.84in /  1010.4hPa WNW 2.0mph /  3.2km/h 6.0mph /  9.7km/h 66% 0.01in /  0.3mm
11:25 76.2 °F /  24.6 °C 64.5 °F /  18.1 °C 29.84in /  1010.4hPa Calm   6.0mph /  9.7km/h 67% 0.01in /  0.3mm
11:30 76.7 °F /  24.8 °C 63.6 °F /  17.6 °C 29.84in /  1010.4hPa Calm   1.0mph /  1.6km/h 64% 0.01in /  0.3mm
11:35 77.2 °F /  25.1 °C 63.2 °F /  17.3 °C 29.84in /  1010.4hPa Calm   1.0mph /  1.6km/h 62% 0.01in /  0.3mm
11:40 76.9 °F /  24.9 °C 61.0 °F /  16.1 °C 29.84in /  1010.4hPa NNE 2.0mph /  3.2km/h 7.0mph /  11.3km/h 58% 0.01in /  0.3mm
11:45 76.9 °F /  24.9 °C 62.9 °F /  17.2 °C 29.84in /  1010.4hPa NE 1.0mph /  1.6km/h 7.0mph /  11.3km/h 62% 0.01in /  0.3mm
11:50 77.1 °F /  25.1 °C 62.6 °F /  17 °C 29.84in /  1010.4hPa NE 1.0mph /  1.6km/h 5.0mph /  8km/h 61% 0.01in /  0.3mm
11:55 77.1 °F /  25.1 °C 61.7 °F /  16.5 °C 29.84in /  1010.4hPa Calm   5.0mph /  8km/h 59% 0.01in /  0.3mm
12:00 77.3 °F /  25.2 °C 61.4 °F /  16.3 °C 29.84in /  1010.4hPa NNE 2.0mph /  3.2km/h 7.0mph /  11.3km/h 58% 0.01in /  0.3mm
12:05 77.4 °F /  25.2 °C 61.5 °F /  16.4 °C 29.84in /  1010.4hPa Calm   7.0mph /  11.3km/h 58% 0.01in /  0.3mm
12:10 77.8 °F /  25.4 °C 62.3 °F /  16.8 °C 29.84in /  1010.4hPa NNW 1.0mph /  1.6km/h 5.0mph /  8km/h 59% 0.01in /  0.3mm
12:15 77.8 °F /  25.4 °C 59.3 °F /  15.2 °C 29.84in /  1010.4hPa Calm   10.0mph /  16.1km/h 53% 0.01in /  0.3mm
12:20 77.8 °F /  25.4 °C 59.3 °F /  15.2 °C 29.84in /  1010.4hPa NNE 3.0mph /  4.8km/h 10.0mph /  16.1km/h 53% 0.01in /  0.3mm
12:25 77.9 °F /  25.5 °C 62.9 °F /  17.2 °C 29.84in /  1010.4hPa NW 1.0mph /  1.6km/h 6.0mph /  9.7km/h 60% 0.01in /  0.3mm
12:30 78.1 °F /  25.6 °C 63.1 °F /  17.3 °C 29.84in /  1010.4hPa NE 2.0mph /  3.2km/h 6.0mph /  9.7km/h 60% 0.01in /  0.3mm
12:40 78.7 °F /  25.9 °C 62.7 °F /  17.1 °C 29.84in /  1010.4hPa WNW 2.0mph /  3.2km/h 7.0mph /  11.3km/h 58% 0.01in /  0.3mm
12:50 78.5 °F /  25.8 °C 63.5 °F /  17.5 °C 29.84in /  1010.4hPa NE 2.0mph /  3.2km/h 7.0mph /  11.3km/h 60% 0.01in /  0.3mm
12:55 78.5 °F /  25.8 °C 61.5 °F /  16.4 °C 29.84in /  1010.4hPa WNW 1.0mph /  1.6km/h 7.0mph /  11.3km/h 56% 0.01in /  0.3mm
13:00 78.8 °F /  26 °C 63.8 °F /  17.7 °C 29.84in /  1010.4hPa WNW 3.0mph /  4.8km/h 8.0mph /  12.9km/h 60% 0.01in /  0.3mm
13:05 79.2 °F /  26.2 °C 64.1 °F /  17.8 °C 29.84in /  1010.4hPa Calm   8.0mph /  12.9km/h 60% 0.01in /  0.3mm
13:10 79.2 °F /  26.2 °C 60.6 °F /  15.9 °C 29.84in /  1010.4hPa Calm   6.0mph /  9.7km/h 53% 0.01in /  0.3mm
13:15 78.9 °F /  26.1 °C 60.9 °F /  16.1 °C 29.84in /  1010.4hPa NW 3.0mph /  4.8km/h 9.0mph /  14.5km/h 54% 0.01in /  0.3mm
13:20 79.1 °F /  26.2 °C 65.9 °F /  18.8 °C 29.84in /  1010.4hPa Calm   9.0mph /  14.5km/h 64% 0.01in /  0.3mm
13:25 79.4 °F /  26.3 °C 62.4 °F /  16.9 °C 29.84in /  1010.4hPa NW 3.0mph /  4.8km/h 8.0mph /  12.9km/h 56% 0.01in /  0.3mm
13:30 79.4 °F /  26.3 °C 63.8 °F /  17.7 °C 29.84in /  1010.4hPa WNW 3.0mph /  4.8km/h 8.0mph /  12.9km/h 59% 0.01in /  0.3mm
13:35 79.4 °F /  26.3 °C 63.4 °F /  17.4 °C 29.83in /  1010hPa Calm   8.0mph /  12.9km/h 58% 0.01in /  0.3mm
13:40 79.4 °F /  26.3 °C 61.8 °F /  16.6 °C 29.83in /  1010hPa Calm   2.0mph /  3.2km/h 55% 0.01in /  0.3mm
13:45 79.4 °F /  26.3 °C 61.3 °F /  16.3 °C 29.83in /  1010hPa NW 1.0mph /  1.6km/h 6.0mph /  9.7km/h 54% 0.01in /  0.3mm
13:50 78.8 °F /  26 °C 62.8 °F /  17.1 °C 29.83in /  1010hPa Calm   8.0mph /  12.9km/h 58% 0.01in /  0.3mm
13:55 79.0 °F /  26.1 °C 61.5 °F /  16.4 °C 29.83in /  1010hPa NW 4.0mph /  6.4km/h 8.0mph /  12.9km/h 55% 0.01in /  0.3mm
14:00 79.0 °F /  26.1 °C 63.0 °F /  17.2 °C 29.83in /  1010hPa NW 2.0mph /  3.2km/h 8.0mph /  12.9km/h 58% 0.01in /  0.3mm
14:05 78.9 °F /  26.1 °C 60.3 °F /  15.7 °C 29.83in /  1010hPa WNW 1.0mph /  1.6km/h 8.0mph /  12.9km/h 53% 0.01in /  0.3mm
14:10 78.7 °F /  25.9 °C 64.6 °F /  18.1 °C 29.83in /  1010hPa Calm   6.0mph /  9.7km/h 62% 0.01in /  0.3mm
14:15 78.6 °F /  25.9 °C 63.6 °F /  17.6 °C 29.83in /  1010hPa Calm   8.0mph /  12.9km/h 60% 0.01in /  0.3mm
14:20 78.5 °F /  25.8 °C 60.5 °F /  15.8 °C 29.83in /  1010hPa Calm   8.0mph /  12.9km/h 54% 0.01in /  0.3mm
14:30 78.3 °F /  25.7 °C 60.3 °F /  15.7 °C 29.83in /  1010hPa NW 1.0mph /  1.6km/h 6.0mph /  9.7km/h 54% 0.01in /  0.3mm
14:35 78.2 °F /  25.7 °C 61.7 °F /  16.5 °C 29.83in /  1010hPa NW 1.0mph /  1.6km/h 6.0mph /  9.7km/h 57% 0.01in /  0.3mm
14:40 78.2 °F /  25.7 °C 62.2 °F /  16.8 °C 29.83in /  1010hPa WNW 5.0mph /  8km/h 8.0mph /  12.9km/h 58% 0.01in /  0.3mm
14:45 78.2 °F /  25.7 °C 61.7 °F /  16.5 °C 29.83in /  1010hPa NW 4.0mph /  6.4km/h 9.0mph /  14.5km/h 57% 0.01in /  0.3mm
14:50 78.3 °F /  25.7 °C 61.3 °F /  16.3 °C 29.83in /  1010hPa NW 2.0mph /  3.2km/h 9.0mph /  14.5km/h 56% 0.01in /  0.3mm
14:55 78.6 °F /  25.9 °C 65.0 °F /  18.3 °C 29.83in /  1010hPa Calm   9.0mph /  14.5km/h 63% 0.01in /  0.3mm
15:00 78.9 °F /  26.1 °C 63.4 °F /  17.4 °C 29.83in /  1010hPa NW 2.0mph /  3.2km/h 8.0mph /  12.9km/h 59% 0.01in /  0.3mm
15:05 79.1 °F /  26.2 °C 63.1 °F /  17.3 °C 29.82in /  1009.7hPa NW 3.0mph /  4.8km/h 8.0mph /  12.9km/h 58% 0.01in /  0.3mm
15:10 79.5 °F /  26.4 °C 61.4 °F /  16.3 °C 29.82in /  1009.7hPa NW 2.0mph /  3.2km/h 8.0mph /  12.9km/h 54% 0.01in /  0.3mm
15:15 79.4 °F /  26.3 °C 60.3 °F /  15.7 °C 29.82in /  1009.7hPa WNW 4.0mph /  6.4km/h 8.0mph /  12.9km/h 52% 0.01in /  0.3mm
15:20 79.3 °F /  26.3 °C 61.8 °F /  16.6 °C 29.82in /  1009.7hPa NW 2.0mph /  3.2km/h 9.0mph /  14.5km/h 55% 0.01in /  0.3mm
15:25 79.4 °F /  26.3 °C 61.8 °F /  16.6 °C 29.82in /  1009.7hPa NW 3.0mph /  4.8km/h 9.0mph /  14.5km/h 55% 0.01in /  0.3mm
15:30 79.3 °F /  26.3 °C 60.7 °F /  15.9 °C 29.82in /  1009.7hPa NW 5.0mph /  8km/h 10.0mph /  16.1km/h 53% 0.01in /  0.3mm
15:35 79.6 °F /  26.4 °C 62.5 °F /  16.9 °C 29.82in /  1009.7hPa West 1.0mph /  1.6km/h 10.0mph /  16.1km/h 56% 0.01in /  0.3mm
15:40 79.5 °F /  26.4 °C 60.9 °F /  16.1 °C 29.82in /  1009.7hPa NW 1.0mph /  1.6km/h 9.0mph /  14.5km/h 53% 0.01in /  0.3mm
15:45 79.5 °F /  26.4 °C 61.4 °F /  16.3 °C 29.82in /  1009.7hPa NW 4.0mph /  6.4km/h 9.0mph /  14.5km/h 54% 0.01in /  0.3mm
15:50 79.6 °F /  26.4 °C 59.9 °F /  15.5 °C 29.82in /  1009.7hPa WNW 2.0mph /  3.2km/h 7.0mph /  11.3km/h 51% 0.01in /  0.3mm
15:55 80.1 °F /  26.7 °C 63.0 °F /  17.2 °C 29.82in /  1009.7hPa Calm   7.0mph /  11.3km/h 56% 0.01in /  0.3mm
16:00 80.7 °F /  27.1 °C 62.5 °F /  16.9 °C 29.82in /  1009.7hPa Calm   7.0mph /  11.3km/h 54% 0.01in /  0.3mm
16:05 80.9 °F /  27.2 °C 65.2 °F /  18.4 °C 29.82in /  1009.7hPa Calm   6.0mph /  9.7km/h 59% 0.01in /  0.3mm
16:10 81.2 °F /  27.3 °C 61.9 °F /  16.6 °C 29.82in /  1009.7hPa Calm   6.0mph /  9.7km/h 52% 0.01in /  0.3mm
16:15 81.4 °F /  27.4 °C 62.7 °F /  17.1 °C 29.82in /  1009.7hPa Calm   6.0mph /  9.7km/h 53% 0.01in /  0.3mm
16:20 81.2 °F /  27.3 °C 59.7 °F /  15.4 °C 29.82in /  1009.7hPa Calm   6.0mph /  9.7km/h 48% 0.01in /  0.3mm
16:25 80.8 °F /  27.1 °C 60.5 °F /  15.8 °C 29.81in /  1009.4hPa Calm   4.0mph /  6.4km/h 50% 0.01in /  0.3mm
16:30 80.8 °F /  27.1 °C 59.9 °F /  15.5 °C 29.82in /  1009.7hPa NW 2.0mph /  3.2km/h 7.0mph /  11.3km/h 49% 0.01in /  0.3mm
16:35 80.6 °F /  27 °C 58.5 °F /  14.7 °C 29.81in /  1009.4hPa Calm   7.0mph /  11.3km/h 47% 0.01in /  0.3mm
16:45 80.7 °F /  27.1 °C 62.0 °F /  16.7 °C 29.81in /  1009.4hPa NNW 1.0mph /  1.6km/h 5.0mph /  8km/h 53% 0.01in /  0.3mm
16:50 80.5 °F /  26.9 °C 57.2 °F /  14 °C 29.82in /  1009.7hPa NNE 1.0mph /  1.6km/h 5.0mph /  8km/h 45% 0.01in /  0.3mm
16:55 80.0 °F /  26.7 °C 60.3 °F /  15.7 °C 29.81in /  1009.4hPa Calm   5.0mph /  8km/h 51% 0.01in /  0.3mm
17:00 79.4 °F /  26.3 °C 60.3 °F /  15.7 °C 29.81in /  1009.4hPa Calm   4.0mph /  6.4km/h 52% 0.01in /  0.3mm
17:05 79.4 °F /  26.3 °C 62.4 °F /  16.9 °C 29.82in /  1009.7hPa Calm   1.0mph /  1.6km/h 56% 0.01in /  0.3mm
17:10 79.7 °F /  26.5 °C 61.6 °F /  16.4 °C 29.82in /  1009.7hPa Calm   1.0mph /  1.6km/h 54% 0.01in /  0.3mm
17:15 80.0 °F /  26.7 °C 59.2 °F /  15.1 °C 29.82in /  1009.7hPa Calm   1.0mph /  1.6km/h 49% 0.01in /  0.3mm
17:20 80.2 °F /  26.8 °C 63.6 °F /  17.6 °C 29.82in /  1009.7hPa Calm   1.0mph /  1.6km/h 57% 0.01in /  0.3mm
17:25 80.5 °F /  26.9 °C 61.8 °F /  16.6 °C 29.82in /  1009.7hPa Calm   1.0mph /  1.6km/h 53% 0.01in /  0.3mm
17:30 80.6 °F /  27 °C 62.4 °F /  16.9 °C 29.82in /  1009.7hPa Calm   1.0mph /  1.6km/h 54% 0.01in /  0.3mm
17:35 80.5 °F /  26.9 °C 60.2 °F /  15.7 °C 29.82in /  1009.7hPa Calm   1.0mph /  1.6km/h 50% 0.01in /  0.3mm
17:40 80.2 °F /  26.8 °C 58.8 °F /  14.9 °C 29.82in /  1009.7hPa Calm   1.0mph /  1.6km/h 48% 0.01in /  0.3mm
17:45 80.0 °F /  26.7 °C 61.9 °F /  16.6 °C 29.82in /  1009.7hPa Calm   1.0mph /  1.6km/h 54% 0.01in /  0.3mm
17:50 79.8 °F /  26.6 °C 61.2 °F /  16.2 °C 29.81in /  1009.4hPa Calm   1.0mph /  1.6km/h 53% 0.01in /  0.3mm
17:55 79.6 °F /  26.4 °C 59.4 °F /  15.2 °C 29.81in /  1009.4hPa Calm   1.0mph /  1.6km/h 50% 0.01in /  0.3mm
18:00 79.5 °F /  26.4 °C 61.9 °F /  16.6 °C 29.81in /  1009.4hPa Calm   1.0mph /  1.6km/h 55% 0.01in /  0.3mm
18:10 79.8 °F /  26.6 °C 57.2 °F /  14 °C 29.81in /  1009.4hPa Calm     46% 0.01in /  0.3mm
18:15 79.8 °F /  26.6 °C 62.2 °F /  16.8 °C 29.81in /  1009.4hPa Calm     55% 0.01in /  0.3mm
18:20 78.9 °F /  26.1 °C 62.4 °F /  16.9 °C 29.81in /  1009.4hPa Calm     57% 0.01in /  0.3mm
18:25 78.0 °F /  25.6 °C 62.0 °F /  16.7 °C 29.81in /  1009.4hPa Calm     58% 0.01in /  0.3mm
18:30 77.0 °F /  25 °C 62.5 °F /  16.9 °C 29.81in /  1009.4hPa Calm     61% 0.01in /  0.3mm
18:35 76.2 °F /  24.6 °C 61.8 °F /  16.6 °C 29.81in /  1009.4hPa Calm     61% 0.01in /  0.3mm
18:40 75.7 °F /  24.3 °C 62.7 °F /  17.1 °C 29.82in /  1009.7hPa Calm     64% 0.01in /  0.3mm
18:45 75.4 °F /  24.1 °C 63.3 °F /  17.4 °C 29.82in /  1009.7hPa Calm     66% 0.01in /  0.3mm
18:50 74.9 °F /  23.8 °C 62.4 °F /  16.9 °C 29.82in /  1009.7hPa Calm     65% 0.01in /  0.3mm
18:55 74.4 °F /  23.6 °C 64.0 °F /  17.8 °C 29.82in /  1009.7hPa Calm     70% 0.01in /  0.3mm
19:05 73.7 °F /  23.2 °C 62.5 °F /  16.9 °C 29.82in /  1009.7hPa Calm     68% 0.01in /  0.3mm
19:10 73.4 °F /  23 °C 63.0 °F /  17.2 °C 29.81in /  1009.4hPa Calm     70% 0.01in /  0.3mm
19:15 72.9 °F /  22.7 °C 63.0 °F /  17.2 °C 29.82in /  1009.7hPa Calm     71% 0.01in /  0.3mm
19:25 72.2 °F /  22.3 °C 64.6 °F /  18.1 °C 29.81in /  1009.4hPa Calm     77% 0.01in /  0.3mm
19:30 71.7 °F /  22.1 °C 64.1 °F /  17.8 °C 29.82in /  1009.7hPa Calm     77% 0.01in /  0.3mm
19:40 70.8 °F /  21.6 °C 63.6 °F /  17.6 °C 29.82in /  1009.7hPa Calm     78% 0.01in /  0.3mm
19:45 70.1 °F /  21.2 °C 63.3 °F /  17.4 °C 29.82in /  1009.7hPa Calm     79% 0.01in /  0.3mm
19:50 69.5 °F /  20.8 °C 62.3 °F /  16.8 °C 29.82in /  1009.7hPa Calm     78% 0.01in /  0.3mm
19:55 68.9 °F /  20.5 °C 62.1 °F /  16.7 °C 29.81in /  1009.4hPa Calm     79% 0.01in /  0.3mm
20:00 68.3 °F /  20.2 °C 61.2 °F /  16.2 °C 29.81in /  1009.4hPa Calm     78% 0.01in /  0.3mm
20:05 67.2 °F /  19.6 °C 59.4 °F /  15.2 °C 29.82in /  1009.7hPa Calm     76% 0.01in /  0.3mm
20:10 66.4 °F /  19.1 °C 59.3 °F /  15.2 °C 29.82in /  1009.7hPa Calm     78% 0.01in /  0.3mm
20:15 65.8 °F /  18.8 °C 59.5 °F /  15.3 °C 29.82in /  1009.7hPa Calm     80% 0.01in /  0.3mm
20:20 65.2 °F /  18.4 °C 58.9 °F /  14.9 °C 29.82in /  1009.7hPa Calm     80% 0.01in /  0.3mm
20:25 64.6 °F /  18.1 °C 58.3 °F /  14.6 °C 29.82in /  1009.7hPa Calm     80% 0.01in /  0.3mm
20:30 64.0 °F /  17.8 °C 57.7 °F /  14.3 °C 29.82in /  1009.7hPa Calm     80% 0.01in /  0.3mm
20:35 63.4 °F /  17.4 °C 57.5 °F /  14.2 °C 29.82in /  1009.7hPa Calm     81% 0.01in /  0.3mm
20:40 62.9 °F /  17.2 °C 57.0 °F /  13.9 °C 29.82in /  1009.7hPa Calm     81% 0.01in /  0.3mm
20:45 62.4 °F /  16.9 °C 56.5 °F /  13.6 °C 29.82in /  1009.7hPa Calm     81% 0.01in /  0.3mm
20:50 62.0 °F /  16.7 °C 56.1 °F /  13.4 °C 29.82in /  1009.7hPa Calm     81% 0.01in /  0.3mm
20:55 61.6 °F /  16.4 °C 56.1 °F /  13.4 °C 29.82in /  1009.7hPa Calm     82% 0.01in /  0.3mm
21:00 61.3 °F /  16.3 °C 55.8 °F /  13.2 °C 29.82in /  1009.7hPa Calm     82% 0.01in /  0.3mm
21:10 60.7 °F /  15.9 °C 55.5 °F /  13.1 °C 29.82in /  1009.7hPa Calm     83% 0.01in /  0.3mm
21:15 60.4 °F /  15.8 °C 55.2 °F /  12.9 °C 29.82in /  1009.7hPa Calm     83% 0.01in /  0.3mm
21:20 60.2 °F /  15.7 °C 55.4 °F /  13 °C 29.82in /  1009.7hPa Calm     84% 0.01in /  0.3mm
21:25 59.9 °F /  15.5 °C 55.4 °F /  13 °C 29.82in /  1009.7hPa Calm     85% 0.01in /  0.3mm
21:30 59.8 °F /  15.4 °C 55.3 °F /  12.9 °C 29.82in /  1009.7hPa Calm     85% 0.01in /  0.3mm
21:40 59.4 °F /  15.2 °C 55.2 °F /  12.9 °C 29.82in /  1009.7hPa Calm     86% 0.01in /  0.3mm
21:45 59.3 °F /  15.2 °C 55.1 °F /  12.8 °C 29.83in /  1010hPa Calm     86% 0.01in /  0.3mm
21:50 59.2 °F /  15.1 °C 55.3 °F /  12.9 °C 29.83in /  1010hPa Calm     87% 0.01in /  0.3mm
21:55 59.0 °F /  15 °C 55.1 °F /  12.8 °C 29.82in /  1009.7hPa Calm     87% 0.01in /  0.3mm
22:00 59.0 °F /  15 °C 55.1 °F /  12.8 °C 29.83in /  1010hPa Calm     87% 0.01in /  0.3mm
22:05 59.0 °F /  15 °C 55.1 °F /  12.8 °C 29.83in /  1010hPa Calm     87% 0.01in /  0.3mm
22:10 58.9 °F /  14.9 °C 55.0 °F /  12.8 °C 29.83in /  1010hPa Calm     87% 0.01in /  0.3mm
22:15 58.8 °F /  14.9 °C 55.3 °F /  12.9 °C 29.83in /  1010hPa Calm     88% 0.01in /  0.3mm
22:20 58.7 °F /  14.8 °C 55.2 °F /  12.9 °C 29.83in /  1010hPa Calm     88% 0.01in /  0.3mm
22:25 58.6 °F /  14.8 °C 55.1 °F /  12.8 °C 29.83in /  1010hPa Calm     88% 0.01in /  0.3mm
22:30 58.4 °F /  14.7 °C 54.9 °F /  12.7 °C 29.82in /  1009.7hPa Calm     88% 0.01in /  0.3mm
22:35 58.5 °F /  14.7 °C 55.3 °F /  12.9 °C 29.83in /  1010hPa Calm     89% 0.01in /  0.3mm
22:40 58.4 °F /  14.7 °C 55.2 °F /  12.9 °C 29.83in /  1010hPa Calm     89% 0.01in /  0.3mm
22:50 58.7 °F /  14.8 °C 55.8 °F /  13.2 °C 29.82in /  1009.7hPa Calm     90% 0.01in /  0.3mm
22:55 59.0 °F /  15 °C 56.1 °F /  13.4 °C 29.82in /  1009.7hPa Calm     90% 0.01in /  0.3mm
23:00 58.9 °F /  14.9 °C 56.0 °F /  13.3 °C 29.82in /  1009.7hPa Calm     90% 0.01in /  0.3mm
23:05 58.7 °F /  14.8 °C 55.8 °F /  13.2 °C 29.82in /  1009.7hPa Calm     90% 0.01in /  0.3mm
23:10 58.7 °F /  14.8 °C 55.8 °F /  13.2 °C 29.82in /  1009.7hPa Calm     90% 0.01in /  0.3mm
23:15 58.6 °F /  14.8 °C 56.0 °F /  13.3 °C 29.82in /  1009.7hPa Calm     91% 0.01in /  0.3mm
23:20 58.5 °F /  14.7 °C 55.6 °F /  13.1 °C 29.82in /  1009.7hPa Calm     90% 0.01in /  0.3mm
23:25 58.3 °F /  14.6 °C 55.7 °F /  13.2 °C 29.82in /  1009.7hPa Calm     91% 0.01in /  0.3mm
23:30 58.3 °F /  14.6 °C 55.7 °F /  13.2 °C 29.82in /  1009.7hPa Calm     91% 0.01in /  0.3mm
23:35 58.4 °F /  14.7 °C 55.8 °F /  13.2 °C 29.82in /  1009.7hPa Calm     91% 0.01in /  0.3mm
23:40 58.5 °F /  14.7 °C 56.2 °F /  13.4 °C 29.82in /  1009.7hPa Calm     92% 0.01in /  0.3mm
23:45 58.9 °F /  14.9 °C 56.6 °F /  13.7 °C 29.82in /  1009.7hPa Calm     92% 0.01in /  0.3mm
23:50 59.0 °F /  15 °C 57.0 °F /  13.9 °C 29.82in /  1009.7hPa Calm     93% 0.01in /  0.3mm
23:55 59.0 °F /  15 °C 57.0 °F /  13.9 °C 29.82in /  1009.7hPa Calm     93% 0.01in /  0.3mm
Westford Weather
Compliments of Weather Underground

 
 
Current Radar Loop:

Copyright © WestfordWeather.net 2007-2014. All rights reserved.